createdAt,value
2022-08-17T16:33:31.099Z,99791.61
2022-08-17T16:40:59.255Z,99789.47
2022-08-17T16:43:36.907Z,99787.23
2022-08-17T16:46:08.787Z,99787.50
2022-08-17T16:48:43.165Z,99784.33
2022-08-17T16:51:25.015Z,99785.04
2022-08-17T16:54:19.466Z,99786.29
2022-08-17T16:57:09.005Z,99788.96
2022-08-17T16:59:43.789Z,99791.88
2022-08-17T17:02:30.483Z,99791.90
2022-08-17T17:05:55.341Z,99793.63
2022-08-17T17:08:38.455Z,99792.98
2022-08-17T17:11:29.887Z,99798.17
2022-08-17T17:14:30.179Z,99804.16
2022-08-17T17:18:13.866Z,99805.72
2022-08-17T17:21:42.051Z,99804.52
2022-08-17T17:24:32.576Z,99805.13
2022-08-17T17:27:30.617Z,99808.02
2022-08-17T17:30:12.039Z,99809.25
2022-08-17T17:33:02.354Z,99812.65
2022-08-17T17:35:47.718Z,99812.96
2022-08-17T17:38:46.387Z,99810.11
2022-08-17T17:41:45.098Z,99811.34
2022-08-17T17:44:25.705Z,99814.67
2022-08-17T17:47:03.062Z,99818.36
2022-08-17T17:49:51.707Z,99816.70
2022-08-17T17:52:36.718Z,99814.02
2022-08-17T17:55:20.070Z,99811.11
2022-08-17T17:58:13.773Z,99812.93
2022-08-17T18:01:28.177Z,99820.48
2022-08-17T18:04:20.352Z,99820.89
2022-08-17T18:07:26.111Z,99819.50
2022-08-17T18:10:19.794Z,99826.80
2022-08-17T18:13:27.237Z,99829.77
2022-08-17T18:16:01.575Z,99832.48
2022-08-17T18:18:40.847Z,99835.95
2022-08-17T18:21:16.905Z,99840.58
2022-08-17T18:24:00.750Z,99839.73
2022-08-17T18:26:33.915Z,99841.54
2022-08-17T18:29:25.313Z,99838.89
2022-08-17T18:32:19.577Z,99841.64
2022-08-17T18:35:12.331Z,99838.30
2022-08-17T18:37:55.971Z,99848.61
2022-08-17T18:40:38.970Z,99846.13
2022-08-17T18:43:24.901Z,99845.61
2022-08-17T18:45:59.012Z,99847.20
2022-08-17T18:48:50.304Z,99851.98
2022-08-17T18:51:40.761Z,99852.14
2022-08-17T18:54:37.690Z,99856.14
2022-08-17T18:57:11.656Z,99860.65
2022-08-17T18:59:49.682Z,99863.33
2022-08-17T19:02:44.719Z,99860.83
2022-08-17T19:05:41.824Z,99862.33
2022-08-17T19:08:38.171Z,99857.39
2022-08-17T19:11:27.870Z,99857.19
2022-08-17T19:14:10.056Z,99867.52
2022-08-17T19:17:11.570Z,99863.17
2022-08-17T19:20:19.535Z,99862.13
2022-08-17T19:23:15.554Z,99865.18
2022-08-17T19:25:52.703Z,99874.55
2022-08-17T19:29:04.922Z,99884.81
2022-08-17T19:31:41.656Z,99893.13
2022-08-17T19:34:29.919Z,99903.60
2022-08-17T19:37:36.487Z,99898.19
2022-08-17T19:40:51.048Z,99901.70
2022-08-17T19:43:38.862Z,99907.77
2022-08-17T19:46:56.190Z,99908.02
2022-08-17T19:49:41.633Z,99908.95
2022-08-17T19:52:56.094Z,99907.13
2022-08-17T19:55:57.100Z,99906.71
2022-08-17T19:58:33.699Z,99904.02
2022-08-17T20:06:12.550Z,99907.67
2022-08-17T20:09:42.136Z,99916.54
2022-08-17T20:12:40.943Z,99922.13
2022-08-17T20:15:34.271Z,99922.50
2022-08-17T20:18:15.736Z,99922.40
2022-08-17T20:20:59.303Z,99915.23
2022-08-17T20:23:42.614Z,99909.86
2022-08-17T20:27:08.221Z,99908.67
2022-08-17T20:30:51.268Z,99903.33
2022-08-17T20:33:42.243Z,99913.41
2022-08-17T20:37:00.640Z,99916.63
2022-08-17T20:40:09.790Z,99920.21
2022-08-17T20:43:19.596Z,99919.73
2022-08-17T20:46:37.452Z,99920.64
2022-08-17T20:50:03.834Z,99927.34
2022-08-17T20:53:33.661Z,99927.64
2022-08-17T20:57:09.197Z,99919.27
2022-08-17T21:00:07.704Z,99913.78
2022-08-17T21:03:09.890Z,99914.28
2022-08-17T21:06:38.656Z,99922.39
2022-08-17T21:14:43.466Z,99924.59
2022-08-17T21:18:15.967Z,99923.36
2022-08-17T21:24:52.672Z,99917.29
2022-08-17T21:27:53.228Z,99917.63
2022-08-17T21:31:23.797Z,99920.86
2022-08-17T21:35:01.351Z,99917.42
2022-08-17T21:37:57.237Z,99917.33
2022-08-17T21:40:36.544Z,99914.46
2022-08-17T21:44:16.312Z,99911.89
2022-08-17T21:47:30.300Z,99918.47
2022-08-17T21:50:51.832Z,99922.96
2022-08-17T21:53:47.605Z,99927.23
2022-08-17T21:56:47.915Z,99931.71
2022-08-17T21:59:41.004Z,99933.61
2022-08-17T22:02:42.258Z,99929.66
2022-08-17T22:05:17.922Z,99915.13
2022-08-17T22:08:16.560Z,99907.98
2022-08-17T22:11:02.495Z,99903.13
2022-08-17T22:14:12.885Z,99898.50
2022-08-17T22:17:01.999Z,99902.52
2022-08-17T22:20:01.813Z,99908.34
2022-08-17T22:23:12.920Z,99902.61
2022-08-17T22:26:40.179Z,99904.27
2022-08-17T22:29:47.835Z,99903.71
2022-08-17T22:33:03.256Z,99902.41
2022-08-17T22:36:29.652Z,99890.88
2022-08-17T22:39:30.625Z,99893.38
2022-08-17T22:42:08.982Z,99891.41
2022-08-17T22:45:08.237Z,99891.15
2022-08-17T22:48:19.053Z,99894.66
2022-08-17T22:51:25.315Z,99894.89
2022-08-17T22:54:43.764Z,99898.39
2022-08-17T22:57:55.500Z,99898.52
2022-08-17T23:00:33.206Z,99898.42
2022-08-17T23:03:47.891Z,99895.30
2022-08-17T23:06:37.143Z,99903.21
2022-08-17T23:09:55.314Z,99905.39
2022-08-17T23:12:48.487Z,99907.15
2022-08-17T23:16:01.283Z,99908.27
2022-08-17T23:19:33.073Z,99906.61
2022-08-17T23:22:22.419Z,99904.34
2022-08-17T23:25:14.561Z,99909.77
2022-08-17T23:28:26.275Z,99909.89
2022-08-17T23:31:21.440Z,99908.77
2022-08-17T23:34:28.335Z,99907.88
2022-08-17T23:37:37.908Z,99905.83
2022-08-17T23:40:30.300Z,99913.59
2022-08-17T23:47:31.691Z,99915.45
2022-08-17T23:51:04.191Z,99917.63
2022-08-17T23:54:56.138Z,99915.73
2022-08-17T23:58:09.386Z,99915.34
